createdAt,value
2022-08-16T00:01:34.102Z,4.28
2022-08-16T00:03:38.015Z,4.80
2022-08-16T00:05:48.191Z,6.15
2022-08-16T00:07:56.459Z,5.13
2022-08-16T00:10:00.474Z,6.70
2022-08-16T00:12:03.702Z,4.43
2022-08-16T00:14:12.500Z,9.05
2022-08-16T00:17:00.906Z,4.68
2022-08-16T00:18:38.370Z,4.50
2022-08-16T00:20:43.104Z,4.53
2022-08-16T00:22:46.777Z,4.60
2022-08-16T00:24:51.446Z,4.25
2022-08-16T00:26:55.764Z,5.82
2022-08-16T00:28:59.282Z,4.75
2022-08-16T00:31:03.949Z,5.50
2022-08-16T00:33:08.407Z,4.53
2022-08-16T00:35:16.115Z,4.88
2022-08-16T00:37:20.746Z,4.78
2022-08-16T00:39:24.269Z,5.13
2022-08-16T00:41:29.019Z,5.32
2022-08-16T00:43:42.500Z,4.97
2022-08-16T00:46:33.031Z,5.38
2022-08-16T00:48:31.270Z,4.80
2022-08-16T00:50:37.936Z,7.00
2022-08-16T00:52:45.862Z,4.80
2022-08-16T00:54:54.233Z,4.85
2022-08-16T00:57:02.228Z,6.90
2022-08-16T00:59:07.768Z,4.93
2022-08-16T01:01:13.441Z,5.20
2022-08-16T01:03:20.328Z,5.20
2022-08-16T01:05:36.002Z,5.57
2022-08-16T01:07:50.978Z,4.95
2022-08-16T01:09:55.138Z,5.10
2022-08-16T01:11:58.129Z,5.22
2022-08-16T01:14:06.956Z,5.15
2022-08-16T01:16:20.035Z,5.60
2022-08-16T01:18:40.352Z,4.78
2022-08-16T01:20:52.153Z,5.53
2022-08-16T01:23:04.392Z,5.00
2022-08-16T01:25:17.449Z,5.38
2022-08-16T01:27:28.376Z,7.80
2022-08-16T01:29:58.431Z,5.50
2022-08-16T01:32:01.681Z,5.97
2022-08-16T01:34:07.062Z,5.30
2022-08-16T01:36:12.331Z,5.90
2022-08-16T01:38:19.995Z,6.25
2022-08-16T01:40:28.287Z,5.60
2022-08-16T01:42:31.956Z,5.65
2022-08-16T01:44:37.693Z,6.18
2022-08-16T01:46:43.260Z,7.03
2022-08-16T01:48:46.713Z,6.82
2022-08-16T01:51:09.281Z,5.22
2022-08-16T01:53:14.895Z,6.78
2022-08-16T01:55:18.237Z,5.45
2022-08-16T01:57:22.982Z,6.72
2022-08-16T01:59:27.854Z,5.10
2022-08-16T02:01:31.825Z,5.22
2022-08-16T02:03:34.993Z,6.38
2022-08-16T02:05:39.399Z,5.25
2022-08-16T02:07:49.729Z,5.32
2022-08-16T02:09:58.819Z,6.25
2022-08-16T02:12:50.155Z,5.95
2022-08-16T02:14:30.815Z,5.63
2022-08-16T02:16:33.877Z,5.00
2022-08-16T02:18:37.210Z,5.50
2022-08-16T02:20:42.646Z,5.93
2022-08-16T02:22:45.822Z,6.05
2022-08-16T02:24:50.015Z,5.68
2022-08-16T02:26:56.343Z,5.72
2022-08-16T02:29:00.279Z,5.60
2022-08-16T02:31:08.853Z,5.90
2022-08-16T02:33:13.118Z,5.55
2022-08-16T02:35:18.540Z,5.30
2022-08-16T02:37:39.801Z,6.78
2022-08-16T02:39:53.934Z,5.65
2022-08-16T02:41:57.474Z,6.63
2022-08-16T02:44:00.921Z,6.05
2022-08-16T02:46:07.903Z,5.43
2022-08-16T02:48:28.502Z,7.65
2022-08-16T02:50:53.705Z,9.00
2022-08-16T02:52:57.303Z,6.20
2022-08-16T02:55:01.318Z,5.82
2022-08-16T02:57:05.359Z,7.28
2022-08-16T02:59:14.479Z,6.20
2022-08-16T03:01:25.005Z,6.13
2022-08-16T03:04:39.481Z,6.15
2022-08-16T03:06:00.984Z,6.22
2022-08-16T03:08:04.380Z,7.30
2022-08-16T03:10:09.072Z,7.05
2022-08-16T03:12:16.526Z,7.28
2022-08-16T03:14:24.547Z,7.63
2022-08-16T03:16:38.024Z,7.47
2022-08-16T03:18:42.223Z,6.60
2022-08-16T03:20:55.685Z,6.38
2022-08-16T03:22:59.007Z,7.15
2022-08-16T03:25:07.514Z,6.93
2022-08-16T03:27:10.585Z,6.50
2022-08-16T03:29:13.619Z,9.75
2022-08-16T03:31:17.117Z,7.40
2022-08-16T03:33:21.296Z,6.85
2022-08-16T03:35:33.463Z,7.63
2022-08-16T03:38:02.505Z,8.52
2022-08-16T03:40:02.971Z,7.97
2022-08-16T03:42:07.880Z,7.70
2022-08-16T03:44:13.438Z,8.02
2022-08-16T03:46:47.728Z,9.18
2022-08-16T03:48:55.574Z,7.32
2022-08-16T03:50:59.560Z,8.15
2022-08-16T03:53:05.893Z,7.72
2022-08-16T03:55:14.807Z,7.35
2022-08-16T03:57:18.243Z,7.47
2022-08-16T03:59:21.959Z,7.97
2022-08-16T04:01:29.323Z,7.75
2022-08-16T04:03:33.450Z,7.57
2022-08-16T04:05:44.145Z,7.90
2022-08-16T04:07:47.360Z,8.02
2022-08-16T04:09:53.682Z,7.82
2022-08-16T04:11:56.576Z,7.90
2022-08-16T04:14:32.333Z,7.65
2022-08-16T04:16:27.802Z,7.60
2022-08-16T04:18:32.256Z,7.85
2022-08-16T04:20:36.952Z,7.55
2022-08-16T04:22:43.621Z,7.93
2022-08-16T04:24:54.752Z,9.93
2022-08-16T04:26:58.339Z,8.00
2022-08-16T04:29:16.635Z,8.00
2022-08-16T04:31:24.184Z,7.93
2022-08-16T04:33:27.711Z,7.82
2022-08-16T04:35:33.996Z,9.50
2022-08-16T04:37:41.929Z,7.47
2022-08-16T04:39:55.296Z,7.75
2022-08-16T04:42:00.048Z,7.18
2022-08-16T04:44:32.947Z,7.72
2022-08-16T04:47:01.186Z,9.43
2022-08-16T04:49:00.439Z,8.52
2022-08-16T04:51:11.675Z,7.60
2022-08-16T04:53:15.869Z,7.60
2022-08-16T04:55:25.872Z,7.45
2022-08-16T04:57:41.661Z,7.25
2022-08-16T04:59:44.828Z,8.27
2022-08-16T05:01:58.762Z,7.80
2022-08-16T05:04:02.259Z,6.97
2022-08-16T05:06:07.068Z,8.18
2022-08-16T05:08:29.163Z,8.02
2022-08-16T05:10:34.961Z,8.07
2022-08-16T05:12:38.358Z,10.23
2022-08-16T05:15:02.700Z,8.48
2022-08-16T05:17:06.277Z,7.45
2022-08-16T05:19:11.737Z,8.57
2022-08-16T05:21:16.264Z,8.55
2022-08-16T05:23:19.647Z,7.68
2022-08-16T05:25:24.208Z,8.63
2022-08-16T05:27:45.280Z,8.35
2022-08-16T05:29:57.590Z,7.75
2022-08-16T05:32:04.354Z,7.75
2022-08-16T05:34:27.323Z,7.53
2022-08-16T05:36:33.961Z,7.78
2022-08-16T05:38:40.336Z,8.40
2022-08-16T05:40:43.233Z,8.65
2022-08-16T05:43:03.978Z,7.97
2022-08-16T05:45:09.696Z,7.32
2022-08-16T05:47:15.147Z,8.05
2022-08-16T05:49:22.634Z,11.30
2022-08-16T05:51:38.281Z,12.38
2022-08-16T05:53:42.709Z,9.23
2022-08-16T05:55:45.617Z,9.07
2022-08-16T05:57:52.562Z,8.82
2022-08-16T05:59:59.842Z,10.05
2022-08-16T06:02:03.818Z,8.88
2022-08-16T06:04:12.722Z,9.98
2022-08-16T06:06:33.087Z,8.80
2022-08-16T06:08:44.924Z,8.55
2022-08-16T06:11:09.715Z,8.30
2022-08-16T06:13:12.521Z,9.00
2022-08-16T06:15:22.214Z,8.50
2022-08-16T06:17:25.478Z,8.00
2022-08-16T06:19:46.404Z,8.70
2022-08-16T06:21:55.294Z,7.72
2022-08-16T06:24:01.061Z,8.30
2022-08-16T06:26:07.613Z,8.65
2022-08-16T06:28:16.862Z,8.25
2022-08-16T06:30:44.082Z,7.85
2022-08-16T06:32:48.909Z,8.10
2022-08-16T06:34:57.125Z,8.70
2022-08-16T06:37:05.028Z,9.45
2022-08-16T06:39:08.030Z,8.40
2022-08-16T06:41:13.997Z,9.27
2022-08-16T06:43:17.259Z,9.52
2022-08-16T06:45:20.827Z,8.70
2022-08-16T06:47:52.969Z,9.65
2022-08-16T06:49:52.662Z,9.60
2022-08-16T06:52:02.907Z,9.95
2022-08-16T06:54:07.269Z,9.50
2022-08-16T06:56:23.189Z,9.25
2022-08-16T06:58:31.479Z,8.88
2022-08-16T07:00:35.364Z,9.25
2022-08-16T07:02:51.209Z,8.90
2022-08-16T07:04:54.994Z,9.95
2022-08-16T07:06:58.813Z,10.15
2022-08-16T07:09:02.911Z,10.55
2022-08-16T07:11:13.300Z,8.32
2022-08-16T07:13:43.750Z,9.30
2022-08-16T07:15:50.773Z,8.32
2022-08-16T07:17:55.446Z,8.05
2022-08-16T07:20:02.637Z,7.30
2022-08-16T07:22:07.276Z,10.05
2022-08-16T07:24:31.197Z,7.78
2022-08-16T07:26:34.631Z,7.03
2022-08-16T07:28:38.824Z,7.80
2022-08-16T07:30:46.501Z,7.28
2022-08-16T07:32:51.587Z,7.85
2022-08-16T07:34:56.235Z,7.95
2022-08-16T07:36:59.651Z,7.25
2022-08-16T07:39:02.788Z,7.65
2022-08-16T07:41:10.236Z,8.23
2022-08-16T07:43:13.833Z,6.88
2022-08-16T07:45:17.037Z,7.40
2022-08-16T07:47:20.140Z,8.45
2022-08-16T07:49:32.290Z,7.38
2022-08-16T07:51:37.679Z,6.95
2022-08-16T07:53:43.485Z,6.55
2022-08-16T07:55:48.046Z,7.28
2022-08-16T07:57:59.805Z,7.63
2022-08-16T08:00:05.171Z,6.47
2022-08-16T08:02:11.881Z,6.57
2022-08-16T08:04:15.220Z,6.18
2022-08-16T08:06:20.130Z,5.97
2022-08-16T08:08:50.453Z,6.38
2022-08-16T08:10:47.099Z,6.43
2022-08-16T08:12:51.194Z,5.63
2022-08-16T08:14:58.360Z,6.32
2022-08-16T08:17:01.831Z,6.15
2022-08-16T08:19:05.949Z,5.65
2022-08-16T08:21:12.918Z,6.40
2022-08-16T08:23:16.449Z,6.38
2022-08-16T08:25:21.751Z,8.73
2022-08-16T08:27:24.775Z,5.43
2022-08-16T08:29:37.109Z,8.00
2022-08-16T08:31:42.346Z,5.55
2022-08-16T08:33:47.546Z,5.63
2022-08-16T08:35:57.365Z,5.03
2022-08-16T08:38:04.359Z,4.75
2022-08-16T08:40:12.070Z,5.97
2022-08-16T08:42:17.534Z,5.03
2022-08-16T08:44:31.022Z,5.80
2022-08-16T08:46:35.801Z,5.22
2022-08-16T08:48:39.755Z,5.30
2022-08-16T08:50:50.248Z,4.93
2022-08-16T08:52:54.951Z,5.45
2022-08-16T08:54:59.658Z,4.78
2022-08-16T08:57:02.923Z,5.78
2022-08-16T08:59:13.415Z,4.90
2022-08-16T09:01:31.339Z,4.28
2022-08-16T09:03:40.781Z,4.28
2022-08-16T09:05:44.141Z,4.70
2022-08-16T09:08:01.604Z,4.40
2022-08-16T09:10:20.351Z,4.70
2022-08-16T09:12:36.319Z,4.43
2022-08-16T09:14:49.347Z,4.00
2022-08-16T09:17:04.111Z,5.00
2022-08-16T09:19:14.087Z,8.38
2022-08-16T09:21:17.195Z,4.05
2022-08-16T09:23:20.902Z,3.58
2022-08-16T09:25:33.914Z,5.55
2022-08-16T09:27:56.528Z,6.05
2022-08-16T09:30:34.578Z,4.88
2022-08-16T09:32:30.220Z,3.50
2022-08-16T09:34:34.191Z,4.47
2022-08-16T09:36:37.305Z,4.10
2022-08-16T09:38:49.353Z,4.30
2022-08-16T09:40:58.715Z,3.88
2022-08-16T09:43:02.927Z,4.15
2022-08-16T09:45:16.558Z,4.00
2022-08-16T09:47:23.406Z,3.60
2022-08-16T09:49:37.199Z,5.32
2022-08-16T09:51:40.536Z,3.70
2022-08-16T09:53:46.437Z,4.65
2022-08-16T09:55:57.821Z,6.45
2022-08-16T09:58:00.912Z,5.22
2022-08-16T10:00:42.526Z,3.65
2022-08-16T10:02:32.017Z,5.03
2022-08-16T10:04:52.980Z,3.83
2022-08-16T10:09:05.033Z,3.38
2022-08-16T10:11:26.848Z,3.60
2022-08-16T10:13:33.779Z,6.15
2022-08-16T10:15:38.112Z,3.30
2022-08-16T10:18:01.304Z,6.00
2022-08-16T10:20:06.418Z,3.72
2022-08-16T10:22:10.762Z,3.30
2022-08-16T10:24:28.164Z,4.18
2022-08-16T10:27:19.700Z,4.53
2022-08-16T10:28:56.559Z,4.00
2022-08-16T10:31:00.254Z,2.92
2022-08-16T10:33:05.043Z,3.30
2022-08-16T10:35:09.021Z,3.40
2022-08-16T10:37:12.355Z,3.05
2022-08-16T10:39:16.600Z,3.17
2022-08-16T10:41:25.089Z,2.63
2022-08-16T10:43:31.275Z,3.72
2022-08-16T10:45:37.174Z,5.22
2022-08-16T10:47:40.398Z,4.50
2022-08-16T10:49:44.576Z,2.75
2022-08-16T10:52:01.552Z,2.38
2022-08-16T10:54:06.505Z,3.13
2022-08-16T10:56:55.709Z,3.88
2022-08-16T10:58:52.473Z,2.72
2022-08-16T11:00:57.660Z,5.05
2022-08-16T11:03:02.093Z,3.97
2022-08-16T11:05:11.883Z,4.35
2022-08-16T11:09:42.955Z,2.40
2022-08-16T11:14:11.291Z,3.95
2022-08-16T11:18:48.297Z,3.53
2022-08-16T11:21:02.299Z,3.35
2022-08-16T11:23:05.577Z,2.42
2022-08-16T11:25:16.218Z,4.00
2022-08-16T11:27:32.690Z,2.80
2022-08-16T11:29:38.954Z,2.90
2022-08-16T11:31:45.842Z,4.45
2022-08-16T11:33:56.647Z,5.75
2022-08-16T11:38:51.584Z,2.78
2022-08-16T11:40:52.377Z,3.55
2022-08-16T11:42:56.399Z,3.10
2022-08-16T11:44:59.245Z,2.65
2022-08-16T11:47:02.504Z,4.90
2022-08-16T11:49:11.241Z,2.70
2022-08-16T11:51:16.169Z,3.25
2022-08-16T11:53:21.046Z,2.90
2022-08-16T11:55:26.380Z,3.20
2022-08-16T11:57:31.385Z,2.40
2022-08-16T11:59:36.352Z,3.95
2022-08-16T12:01:44.366Z,3.28
2022-08-16T12:03:58.716Z,2.40
2022-08-16T12:06:11.204Z,3.65
2022-08-16T12:08:27.890Z,2.65
2022-08-16T12:10:32.122Z,2.95
2022-08-16T12:12:36.632Z,2.78
2022-08-16T12:14:41.091Z,3.30
2022-08-16T12:16:48.588Z,4.57
2022-08-16T12:18:51.994Z,6.13
2022-08-16T12:20:55.316Z,3.88
2022-08-16T12:23:01.300Z,2.80
2022-08-16T12:25:06.040Z,2.85
2022-08-16T12:27:10.237Z,2.40
2022-08-16T12:29:13.184Z,2.60
2022-08-16T12:31:16.427Z,2.60
2022-08-16T12:33:25.711Z,4.70
2022-08-16T12:35:31.428Z,3.67
2022-08-16T12:37:34.361Z,2.72
2022-08-16T12:39:37.743Z,2.75
2022-08-16T12:41:50.239Z,4.00
2022-08-16T12:43:57.249Z,2.45
2022-08-16T12:46:04.281Z,2.47
2022-08-16T12:48:35.029Z,2.38
2022-08-16T12:50:38.827Z,4.53
2022-08-16T12:52:45.141Z,3.60
2022-08-16T12:54:57.849Z,2.60
2022-08-16T12:57:01.171Z,2.58
2022-08-16T12:59:09.476Z,4.50
2022-08-16T13:01:15.433Z,5.50
2022-08-16T13:03:20.408Z,3.03
2022-08-16T13:05:25.482Z,2.53
2022-08-16T13:07:28.488Z,4.07
2022-08-16T13:09:51.618Z,2.92
2022-08-16T13:12:03.769Z,2.55
2022-08-16T13:14:08.735Z,2.30
2022-08-16T13:16:31.608Z,2.53
2022-08-16T13:18:36.062Z,2.90
2022-08-16T13:20:39.076Z,2.67
2022-08-16T13:22:44.536Z,4.10
2022-08-16T13:24:47.474Z,2.47
2022-08-16T13:26:53.333Z,2.78
2022-08-16T13:28:56.608Z,2.65
2022-08-16T13:31:03.378Z,2.40
2022-08-16T13:33:11.455Z,2.85
2022-08-16T13:35:16.937Z,2.72
2022-08-16T13:37:22.072Z,2.88
2022-08-16T13:39:25.025Z,2.85
2022-08-16T13:41:30.248Z,2.03
2022-08-16T13:43:34.005Z,2.15
2022-08-16T13:45:37.056Z,3.33
2022-08-16T13:47:52.999Z,1.90
2022-08-16T13:49:56.266Z,1.95
2022-08-16T13:51:59.117Z,1.70
2022-08-16T13:54:04.387Z,1.92
2022-08-16T13:56:07.691Z,4.63
2022-08-16T13:58:35.285Z,2.30
2022-08-16T14:00:36.293Z,3.13
2022-08-16T14:02:39.183Z,2.53
2022-08-16T14:04:44.072Z,3.05
2022-08-16T14:06:46.901Z,3.95
2022-08-16T14:08:50.461Z,2.40
2022-08-16T14:11:12.021Z,2.00
2022-08-16T14:13:21.049Z,2.33
2022-08-16T14:15:25.342Z,2.65
2022-08-16T14:17:29.993Z,2.10
2022-08-16T14:19:44.861Z,3.58
2022-08-16T14:21:56.626Z,2.65
2022-08-16T14:24:29.781Z,2.67
2022-08-16T14:26:33.453Z,2.13
2022-08-16T14:28:36.655Z,2.95
2022-08-16T14:30:40.584Z,3.58
2022-08-16T14:32:46.803Z,3.45
2022-08-16T14:34:55.007Z,4.15
2022-08-16T14:36:59.642Z,2.08
2022-08-16T14:39:03.000Z,1.63
2022-08-16T14:41:10.165Z,1.80
2022-08-16T14:43:15.576Z,2.58
2022-08-16T14:45:21.189Z,3.83
2022-08-16T14:47:25.119Z,6.30
2022-08-16T14:49:37.857Z,1.90
2022-08-16T14:51:46.296Z,3.60
2022-08-16T14:53:49.765Z,1.95
2022-08-16T14:55:56.356Z,1.80
2022-08-16T14:57:59.862Z,1.88
2022-08-16T15:00:06.108Z,2.35
2022-08-16T15:02:17.286Z,2.05
2022-08-16T15:04:40.295Z,1.80
2022-08-16T15:06:52.066Z,2.42
2022-08-16T15:08:58.522Z,2.00
2022-08-16T15:11:01.621Z,2.10
2022-08-16T15:13:06.560Z,2.17
2022-08-16T15:15:16.305Z,1.70
2022-08-16T15:17:20.402Z,2.17
2022-08-16T15:19:27.326Z,1.85
2022-08-16T15:21:31.778Z,1.80
2022-08-16T15:23:36.177Z,1.80
2022-08-16T15:25:42.479Z,1.88
2022-08-16T15:27:55.133Z,2.97
2022-08-16T15:29:59.064Z,2.45
2022-08-16T15:32:02.124Z,1.73
2022-08-16T15:34:05.199Z,2.63
2022-08-16T15:36:08.667Z,2.22
2022-08-16T15:38:57.189Z,1.98
2022-08-16T15:40:57.959Z,1.85
2022-08-16T15:43:02.402Z,1.70
2022-08-16T15:45:11.507Z,2.55
2022-08-16T15:47:16.429Z,2.90
2022-08-16T15:49:21.327Z,1.60
2022-08-16T15:51:24.899Z,3.08
2022-08-16T15:53:30.806Z,2.13
2022-08-16T15:55:35.331Z,1.85
2022-08-16T15:57:51.219Z,1.90
2022-08-16T15:59:57.790Z,2.25
2022-08-16T16:02:07.454Z,3.95
2022-08-16T16:04:14.900Z,1.73
2022-08-16T16:06:28.107Z,1.48
2022-08-16T16:08:32.712Z,2.58
2022-08-16T16:10:37.243Z,2.70
2022-08-16T16:12:51.582Z,1.73
2022-08-16T16:14:57.197Z,2.03
2022-08-16T16:17:00.885Z,3.45
2022-08-16T16:19:04.908Z,1.90
2022-08-16T16:21:12.577Z,1.80
2022-08-16T16:23:25.977Z,1.92
2022-08-16T16:25:29.928Z,2.10
2022-08-16T16:27:33.093Z,1.90
2022-08-16T16:29:40.371Z,1.65
2022-08-16T16:31:58.969Z,1.88
2022-08-16T16:34:05.008Z,3.35
2022-08-16T16:36:11.748Z,2.45
2022-08-16T16:38:16.876Z,1.63
2022-08-16T16:40:28.921Z,1.60
2022-08-16T16:42:44.137Z,3.50
2022-08-16T16:44:51.064Z,1.60
2022-08-16T16:46:56.714Z,2.38
2022-08-16T16:49:03.076Z,1.50
2022-08-16T16:51:10.076Z,1.60
2022-08-16T16:53:16.826Z,3.63
2022-08-16T16:55:21.500Z,2.97
2022-08-16T16:57:45.665Z,2.75
2022-08-16T16:59:50.317Z,2.05
2022-08-16T17:02:40.981Z,1.70
2022-08-16T17:04:32.447Z,1.92
2022-08-16T17:06:36.299Z,2.63
2022-08-16T17:08:40.972Z,1.88
2022-08-16T17:10:46.209Z,1.80
2022-08-16T17:12:52.149Z,4.10
2022-08-16T17:15:01.018Z,1.90
2022-08-16T17:17:08.757Z,1.98
2022-08-16T17:19:17.094Z,2.70
2022-08-16T17:21:22.740Z,1.77
2022-08-16T17:23:58.809Z,1.83
2022-08-16T17:30:45.452Z,2.10
2022-08-16T17:32:54.526Z,1.83
2022-08-16T17:35:00.399Z,1.77
2022-08-16T17:37:05.291Z,2.22
2022-08-16T17:39:12.013Z,1.70
2022-08-16T17:39:26.769Z,3.55
2022-08-16T17:39:26.848Z,1.58
2022-08-16T17:41:18.578Z,3.78
2022-08-16T17:43:29.898Z,1.60
2022-08-16T17:45:34.902Z,2.17
2022-08-16T17:47:38.001Z,2.78
2022-08-16T17:49:41.071Z,2.22
2022-08-16T17:51:44.075Z,3.67
2022-08-16T17:53:50.527Z,2.45
2022-08-16T17:55:54.564Z,3.20
2022-08-16T17:57:57.601Z,4.38
2022-08-16T18:00:00.372Z,2.00
2022-08-16T18:02:15.391Z,2.10
2022-08-16T18:04:49.892Z,2.20
2022-08-16T18:06:54.929Z,2.92
2022-08-16T18:09:03.774Z,2.65
2022-08-16T18:11:08.007Z,2.47
2022-08-16T18:13:11.797Z,2.20
2022-08-16T18:15:16.540Z,2.90
2022-08-16T18:17:21.076Z,3.28
2022-08-16T18:19:23.971Z,2.28
2022-08-16T18:21:44.669Z,2.85
2022-08-16T18:23:47.680Z,3.75
2022-08-16T18:25:52.796Z,3.38
2022-08-16T18:27:55.763Z,2.60
2022-08-16T18:29:58.626Z,2.78
2022-08-16T18:32:04.566Z,3.40
2022-08-16T18:34:08.837Z,2.80
2022-08-16T18:36:20.847Z,3.78
2022-08-16T18:38:24.402Z,5.03
2022-08-16T18:40:27.712Z,3.55
2022-08-16T18:42:30.618Z,2.35
2022-08-16T18:44:36.139Z,2.65
2022-08-16T18:46:40.828Z,6.47
2022-08-16T18:48:43.708Z,5.30
2022-08-16T18:51:04.001Z,3.58
2022-08-16T18:53:12.021Z,3.05
2022-08-16T18:55:15.081Z,2.42
2022-08-16T18:57:18.024Z,2.72
2022-08-16T18:59:20.938Z,3.40
2022-08-16T19:01:23.832Z,3.40
2022-08-16T19:03:29.328Z,3.88
2022-08-16T19:05:35.918Z,5.00
2022-08-16T19:07:40.360Z,5.65
2022-08-16T19:09:43.536Z,2.85
2022-08-16T19:11:46.565Z,3.67
2022-08-16T19:13:49.539Z,3.72
2022-08-16T19:15:54.486Z,5.22
2022-08-16T19:17:57.534Z,3.35
2022-08-16T19:20:00.394Z,3.38
2022-08-16T19:22:03.579Z,4.57
2022-08-16T19:24:12.559Z,4.25
2022-08-16T19:26:26.108Z,5.10
2022-08-16T19:28:51.409Z,3.10
2022-08-16T19:30:56.080Z,4.00
2022-08-16T19:32:58.852Z,2.83
2022-08-16T19:35:02.265Z,6.57
2022-08-16T19:37:05.248Z,7.70
2022-08-16T19:39:12.061Z,4.70
2022-08-16T19:41:15.078Z,6.88
2022-08-16T19:43:18.291Z,3.92
2022-08-16T19:45:23.390Z,5.45
2022-08-16T19:47:26.838Z,3.03
2022-08-16T19:49:29.763Z,5.78
2022-08-16T19:51:32.853Z,2.72
2022-08-16T19:53:35.696Z,5.47
2022-08-16T19:55:40.732Z,4.43
2022-08-16T19:57:45.196Z,10.20
2022-08-16T19:59:48.190Z,3.47
2022-08-16T20:01:52.359Z,5.15
2022-08-16T20:03:55.741Z,3.22
2022-08-16T20:05:59.197Z,3.53
2022-08-16T20:08:04.691Z,3.45
2022-08-16T20:10:09.077Z,4.22
2022-08-16T20:12:16.137Z,2.83
2022-08-16T20:14:25.151Z,4.97
2022-08-16T20:16:28.769Z,4.57
2022-08-16T20:18:32.485Z,5.07
2022-08-16T20:20:35.704Z,6.70
2022-08-16T20:22:54.713Z,2.85
2022-08-16T20:24:58.515Z,3.15
2022-08-16T20:27:01.938Z,3.58
2022-08-16T20:29:06.581Z,3.00
2022-08-16T20:31:10.163Z,4.65
2022-08-16T20:33:15.105Z,2.90
2022-08-16T20:35:19.871Z,2.70
2022-08-16T20:37:23.241Z,3.15
2022-08-16T20:39:26.289Z,3.70
2022-08-16T20:41:29.423Z,2.60
2022-08-16T20:43:32.282Z,2.45
2022-08-16T20:45:37.497Z,3.08
2022-08-16T20:47:40.406Z,2.45
2022-08-16T20:49:44.589Z,3.60
2022-08-16T20:51:50.892Z,3.40
2022-08-16T20:53:56.945Z,3.67
2022-08-16T20:56:00.106Z,3.75
2022-08-16T20:58:02.950Z,2.60
2022-08-16T21:00:08.584Z,3.00
2022-08-16T21:02:14.990Z,4.25
2022-08-16T21:04:18.617Z,2.97
2022-08-16T21:06:21.454Z,3.45
2022-08-16T21:08:52.681Z,3.47
2022-08-16T21:10:48.549Z,2.20
2022-08-16T21:12:55.451Z,2.42
2022-08-16T21:14:58.366Z,2.60
2022-08-16T21:17:02.192Z,4.75
2022-08-16T21:19:06.690Z,2.58
2022-08-16T21:21:09.797Z,3.00
2022-08-16T21:23:12.642Z,3.03
2022-08-16T21:25:15.730Z,3.92
2022-08-16T21:27:24.252Z,2.45
2022-08-16T21:29:31.626Z,3.55
2022-08-16T21:31:42.760Z,4.00
2022-08-16T21:33:54.171Z,2.78
2022-08-16T21:35:59.889Z,6.88
2022-08-16T21:38:29.101Z,2.83
2022-08-16T21:40:27.841Z,2.63
2022-08-16T21:42:35.729Z,2.90
2022-08-16T21:44:39.780Z,2.63
2022-08-16T21:46:42.591Z,2.97
2022-08-16T21:48:45.649Z,3.38
2022-08-16T21:50:48.402Z,2.53
2022-08-16T21:53:03.809Z,2.67
2022-08-16T21:55:08.210Z,3.60
2022-08-16T21:57:11.060Z,3.03
2022-08-16T21:59:13.935Z,3.13
2022-08-16T22:01:16.903Z,3.22
2022-08-16T22:03:20.949Z,3.28
2022-08-16T22:05:24.573Z,3.00
2022-08-16T22:07:27.519Z,3.58
2022-08-16T22:09:32.041Z,2.90
2022-08-16T22:11:34.917Z,2.85
2022-08-16T22:13:38.418Z,2.67
2022-08-16T22:15:45.276Z,3.10
2022-08-16T22:17:48.035Z,3.42
2022-08-16T22:19:53.632Z,3.05
2022-08-16T22:21:56.708Z,2.90
2022-08-16T22:24:00.530Z,2.92
2022-08-16T22:26:04.782Z,3.72
2022-08-16T22:28:07.576Z,4.85
2022-08-16T22:30:11.225Z,2.70
2022-08-16T22:32:16.780Z,3.25
2022-08-16T22:34:19.753Z,3.10
2022-08-16T22:36:22.653Z,2.78
2022-08-16T22:38:55.924Z,3.08
2022-08-16T22:40:49.468Z,4.70
2022-08-16T22:42:54.943Z,2.60
2022-08-16T22:44:57.940Z,2.85
2022-08-16T22:47:01.312Z,3.00
2022-08-16T22:49:05.296Z,3.05
2022-08-16T22:51:08.956Z,3.95
2022-08-16T22:53:14.195Z,3.28
2022-08-16T22:55:20.007Z,3.10
2022-08-16T22:57:22.870Z,3.10
2022-08-16T22:59:28.585Z,2.95
2022-08-16T23:01:31.470Z,3.30
2022-08-16T23:03:34.647Z,3.63
2022-08-16T23:05:42.347Z,2.60
2022-08-16T23:07:45.400Z,3.28
2022-08-16T23:09:48.253Z,2.85
2022-08-16T23:11:52.953Z,3.45
2022-08-16T23:13:57.265Z,2.97
2022-08-16T23:16:11.225Z,3.83
2022-08-16T23:18:15.688Z,3.05
2022-08-16T23:20:19.621Z,3.47
2022-08-16T23:22:24.720Z,3.17
2022-08-16T23:24:27.853Z,3.58
2022-08-16T23:26:44.591Z,3.55
2022-08-16T23:28:50.406Z,3.22
2022-08-16T23:30:53.221Z,3.00
2022-08-16T23:32:59.901Z,3.08
2022-08-16T23:35:03.841Z,2.90
2022-08-16T23:37:07.202Z,3.10
2022-08-16T23:39:10.056Z,6.95
2022-08-16T23:41:14.172Z,3.17
2022-08-16T23:43:18.927Z,3.22
2022-08-16T23:45:22.010Z,4.05
2022-08-16T23:47:24.892Z,2.88
2022-08-16T23:49:58.779Z,2.67
2022-08-16T23:51:51.791Z,3.30
2022-08-16T23:53:55.595Z,3.03
2022-08-16T23:56:00.279Z,4.45
2022-08-16T23:58:03.228Z,7.28
